sensor_id;sensor_type;location;lat;lon;timestamp;pressure;altitude;pressure_sealevel;temperature;humidity
59859;BME280;45734;53.648;9.566;2023-05-19T00:03:57;92945.78;;;-145.06;100.00
59859;BME280;45734;53.648;9.566;2023-05-19T00:09:00;92953.97;;;-145.06;100.00
59859;BME280;45734;53.648;9.566;2023-05-19T00:14:02;92958.06;;;-145.06;100.00
59859;BME280;45734;53.648;9.566;2023-05-19T00:19:04;92947.84;;;-145.06;100.00
59859;BME280;45734;53.648;9.566;2023-05-19T00:24:05;92949.88;;;-145.06;100.00
59859;BME280;45734;53.648;9.566;2023-05-19T00:29:06;92917.16;;;-145.06;100.00
59859;BME280;45734;53.648;9.566;2023-05-19T00:34:06;92958.06;;;-145.06;100.00
59859;BME280;45734;53.648;9.566;2023-05-19T00:39:06;92925.34;;;-145.06;100.00
59859;BME280;45734;53.648;9.566;2023-05-19T00:44:07;92935.56;;;-145.06;100.00
59859;BME280;45734;53.648;9.566;2023-05-19T00:49:10;92939.66;;;-145.06;100.00
59859;BME280;45734;53.648;9.566;2023-05-19T00:54:10;92923.28;;;-145.06;100.00
59859;BME280;45734;53.648;9.566;2023-05-19T00:59:10;92941.69;;;-145.06;100.00
59859;BME280;45734;53.648;9.566;2023-05-19T01:04:11;92958.06;;;-145.06;100.00
59859;BME280;45734;53.648;9.566;2023-05-19T01:09:16;92945.78;;;-145.06;100.00
59859;BME280;45734;53.648;9.566;2023-05-19T01:14:18;92951.94;;;-145.06;100.00
59859;BME280;45734;53.648;9.566;2023-05-19T01:35:14;93015.31;;;-145.06;100.00
59859;BME280;45734;53.648;9.566;2023-05-19T01:40:16;92939.66;;;-145.06;100.00
59859;BME280;45734;53.648;9.566;2023-05-19T01:45:17;92988.75;;;-145.06;100.00
59859;BME280;45734;53.648;9.566;2023-05-19T01:50:18;92990.78;;;-145.06;100.00
59859;BME280;45734;53.648;9.566;2023-05-19T01:55:19;92960.09;;;-145.06;100.00
59859;BME280;45734;53.648;9.566;2023-05-19T02:06:00;92984.66;;;-145.06;100.00
59859;BME280;45734;53.648;9.566;2023-05-19T02:11:04;93007.16;;;-145.06;100.00
59859;BME280;45734;53.648;9.566;2023-05-19T02:16:07;92986.69;;;-145.06;100.00
59859;BME280;45734;53.648;9.566;2023-05-19T02:21:07;93017.38;;;-145.06;100.00
59859;BME280;45734;53.648;9.566;2023-05-19T02:26:13;93001.00;;;-145.06;100.00
59859;BME280;45734;53.648;9.566;2023-05-19T02:31:13;92970.34;;;-145.06;100.00
59859;BME280;45734;53.648;9.566;2023-05-19T02:36:14;92941.69;;;-145.06;100.00
59859;BME280;45734;53.648;9.566;2023-05-19T02:41:14;92990.78;;;-145.06;100.00
59859;BME280;45734;53.648;9.566;2023-05-19T02:46:14;93039.88;;;-145.06;100.00
59859;BME280;45734;53.648;9.566;2023-05-19T02:51:14;93025.56;;;-145.06;100.00
59859;BME280;45734;53.648;9.566;2023-05-19T02:56:15;93031.69;;;-145.06;100.00
59859;BME280;45734;53.648;9.566;2023-05-19T03:01:15;93056.22;;;-145.06;100.00
59859;BME280;45734;53.648;9.566;2023-05-19T03:06:16;93029.63;;;-145.06;100.00
59859;BME280;45734;53.648;9.566;2023-05-19T03:11:17;93064.41;;;-145.06;100.00
59859;BME280;45734;53.648;9.566;2023-05-19T03:16:17;93068.50;;;-145.06;100.00
59859;BME280;45734;53.648;9.566;2023-05-19T03:21:18;92994.88;;;-145.06;100.00
59859;BME280;45734;53.648;9.566;2023-05-19T03:26:18;92540.91;;;-145.06;100.00
59859;BME280;45734;53.648;9.566;2023-05-19T03:31:18;92495.91;;;-145.06;100.00
59859;BME280;45734;53.648;9.566;2023-05-19T03:36:18;92424.34;;;-145.06;100.00
59859;BME280;45734;53.648;9.566;2023-05-19T03:41:19;92538.84;;;-145.06;100.00
59859;BME280;45734;53.648;9.566;2023-05-19T03:46:20;92626.78;;;-145.06;100.00
59859;BME280;45734;53.648;9.566;2023-05-19T03:51:20;92489.78;;;-145.06;100.00
59859;BME280;45734;53.648;9.566;2023-05-19T03:56:20;92489.78;;;-145.06;100.00
59859;BME280;45734;53.648;9.566;2023-05-19T04:01:24;92594.06;;;-145.06;100.00
59859;BME280;45734;53.648;9.566;2023-05-19T04:06:24;92565.44;;;-145.06;100.00
59859;BME280;45734;53.648;9.566;2023-05-19T04:11:24;92512.28;;;-145.06;100.00
59859;BME280;45734;53.648;9.566;2023-05-19T04:16:25;92471.38;;;-145.06;100.00
59859;BME280;45734;53.648;9.566;2023-05-19T04:21:25;92389.59;;;-145.06;100.00
59859;BME280;45734;53.648;9.566;2023-05-19T04:26:26;92530.66;;;-145.06;100.00
59859;BME280;45734;53.648;9.566;2023-05-19T04:31:29;92506.13;;;-145.06;100.00
59859;BME280;45734;53.648;9.566;2023-05-19T04:36:30;92516.34;;;-145.06;100.00
59859;BME280;45734;53.648;9.566;2023-05-19T04:41:30;92481.59;;;-145.06;100.00
59859;BME280;45734;53.648;9.566;2023-05-19T04:46:30;92504.09;;;-145.06;100.00
59859;BME280;45734;53.648;9.566;2023-05-19T04:51:31;92485.69;;;-145.06;100.00
59859;BME280;45734;53.648;9.566;2023-05-19T04:56:31;92469.31;;;-145.06;100.00
59859;BME280;45734;53.648;9.566;2023-05-19T05:01:32;92434.56;;;-145.06;100.00
59859;BME280;45734;53.648;9.566;2023-05-19T05:06:32;92471.38;;;-145.06;100.00
59859;BME280;45734;53.648;9.566;2023-05-19T05:11:33;92430.47;;;-145.06;100.00
59859;BME280;45734;53.648;9.566;2023-05-19T05:16:34;92418.22;;;-145.06;100.00
59859;BME280;45734;53.648;9.566;2023-05-19T05:21:34;92393.66;;;-145.06;100.00
59859;BME280;45734;53.648;9.566;2023-05-19T05:26:35;92410.03;;;-145.06;100.00
59859;BME280;45734;53.648;9.566;2023-05-19T05:31:35;92348.69;;;-145.06;100.00
59859;BME280;45734;53.648;9.566;2023-05-19T05:36:36;92338.47;;;-145.06;100.00
59859;BME280;45734;53.648;9.566;2023-05-19T05:41:37;92344.59;;;-145.06;100.00
59859;BME280;45734;53.648;9.566;2023-05-19T05:46:37;92285.31;;;-145.06;100.00
59859;BME280;45734;53.648;9.566;2023-05-19T05:51:38;92301.66;;;-145.06;100.00
59859;BME280;45734;53.648;9.566;2023-05-19T05:56:38;92258.72;;;-145.06;100.00
59859;BME280;45734;53.648;9.566;2023-05-19T06:01:40;92185.13;;;-145.06;100.00
59859;BME280;45734;53.648;9.566;2023-05-19T06:06:42;91997.00;;;-145.06;100.00
59859;BME280;45734;53.648;9.566;2023-05-19T06:11:43;92009.28;;;-145.06;100.00
59859;BME280;45734;53.648;9.566;2023-05-19T06:16:43;91813.00;;;-145.06;100.00
59859;BME280;45734;53.648;9.566;2023-05-19T06:21:43;91882.50;;;-145.06;100.00
59859;BME280;45734;53.648;9.566;2023-05-19T06:26:44;91962.25;;;-145.06;100.00
59859;BME280;45734;53.648;9.566;2023-05-19T06:31:44;91988.84;;;-145.06;100.00
59859;BME280;45734;53.648;9.566;2023-05-19T06:36:45;91939.75;;;-145.06;100.00
59859;BME280;45734;53.648;9.566;2023-05-19T06:41:45;91905.00;;;-145.06;98.74
59859;BME280;45734;53.648;9.566;2023-05-19T06:46:46;91862.06;;;-145.06;98.71
59859;BME280;45734;53.648;9.566;2023-05-19T06:51:46;91665.81;;;-145.06;93.76
59859;BME280;45734;53.648;9.566;2023-05-19T06:56:46;91506.34;;;-145.06;90.04
59859;BME280;45734;53.648;9.566;2023-05-19T07:01:47;91093.44;;;-145.06;78.85
59859;BME280;45734;53.648;9.566;2023-05-19T07:06:47;90743.91;;;-145.06;69.20
59859;BME280;45734;53.648;9.566;2023-05-19T07:11:49;90676.44;;;-145.06;64.67
59859;BME280;45734;53.648;9.566;2023-05-19T07:16:49;90500.69;;;-145.06;58.49
59859;BME280;45734;53.648;9.566;2023-05-19T07:21:49;90635.56;;;-145.06;56.53
59859;BME280;45734;53.648;9.566;2023-05-19T07:26:50;90543.59;;;-145.06;55.98
59859;BME280;45734;53.648;9.566;2023-05-19T07:31:50;90531.34;;;-145.06;53.61
59859;BME280;45734;53.648;9.566;2023-05-19T07:36:53;90459.81;;;-145.06;52.98
59859;BME280;45734;53.648;9.566;2023-05-19T07:41:54;90410.75;;;-145.06;52.61
59859;BME280;45734;53.648;9.566;2023-05-19T07:46:54;90535.44;;;-145.06;51.14
59859;BME280;45734;53.648;9.566;2023-05-19T07:51:55;91001.44;;;-145.06;50.72
59859;BME280;45734;53.648;9.566;2023-05-19T07:56:56;90917.63;;;-145.06;52.31
59859;BME280;45734;53.648;9.566;2023-05-19T08:01:56;90416.88;;;-145.06;52.03
59859;BME280;45734;53.648;9.566;2023-05-19T08:06:56;90856.31;;;-145.06;51.14
59859;BME280;45734;53.648;9.566;2023-05-19T08:11:57;91052.53;;;-145.06;53.40
59859;BME280;45734;53.648;9.566;2023-05-19T08:16:57;91136.34;;;-145.06;54.45
59859;BME280;45734;53.648;9.566;2023-05-19T08:21:57;91105.69;;;-145.06;56.14
59859;BME280;45734;53.648;9.566;2023-05-19T08:27:00;91111.81;;;-145.06;53.76
59859;BME280;45734;53.648;9.566;2023-05-19T08:32:00;91019.84;;;-145.06;55.13
59859;BME280;45734;53.648;9.566;2023-05-19T08:37:01;90925.81;;;-145.06;53.52
59859;BME280;45734;53.648;9.566;2023-05-19T08:42:02;90447.53;;;-145.06;50.08
59859;BME280;45734;53.648;9.566;2023-05-19T08:47:03;90578.34;;;-145.06;48.10
59859;BME280;45734;53.648;9.566;2023-05-19T08:52:21;90566.09;;;-145.06;50.80
59859;BME280;45734;53.648;9.566;2023-05-19T08:57:23;90592.66;;;-145.06;49.85
59859;BME280;45734;53.648;9.566;2023-05-19T09:02:24;90494.56;;;-145.06;47.91
59859;BME280;45734;53.648;9.566;2023-05-19T09:07:25;90968.72;;;-145.06;51.19
59859;BME280;45734;53.648;9.566;2023-05-19T09:12:26;90815.44;;;-145.06;49.87
59859;BME280;45734;53.648;9.566;2023-05-19T09:17:27;90919.69;;;-145.06;51.11
59859;BME280;45734;53.648;9.566;2023-05-19T09:22:27;90700.97;;;-145.06;51.73
59859;BME280;45734;53.648;9.566;2023-05-19T09:27:30;90631.47;;;-145.06;50.30
59859;BME280;45734;53.648;9.566;2023-05-19T09:32:34;90672.38;;;-145.06;49.53
59859;BME280;45734;53.648;9.566;2023-05-19T09:37:34;90635.56;;;-145.06;48.62
59859;BME280;45734;53.648;9.566;2023-05-19T09:42:38;90758.22;;;-145.06;49.45
59859;BME280;45734;53.648;9.566;2023-05-19T09:47:40;90631.47;;;-145.06;48.96
59859;BME280;45734;53.648;9.566;2023-05-19T09:52:43;90927.84;;;-145.06;51.41
59859;BME280;45734;53.648;9.566;2023-05-19T09:57:44;90668.28;;;-145.06;50.57
59859;BME280;45734;53.648;9.566;2023-05-19T10:02:50;90602.88;;;-145.06;53.94
59859;BME280;45734;53.648;9.566;2023-05-19T10:07:53;90494.56;;;-145.06;46.62
59859;BME280;45734;53.648;9.566;2023-05-19T10:12:53;90472.06;;;-145.06;46.70
59859;BME280;45734;53.648;9.566;2023-05-19T10:17:55;90431.19;;;-145.06;44.75
59859;BME280;45734;53.648;9.566;2023-05-19T10:22:55;90420.97;;;-145.06;43.91
59859;BME280;45734;53.648;9.566;2023-05-19T10:28:16;90500.69;;;-145.06;43.77
59859;BME280;45734;53.648;9.566;2023-05-19T10:33:18;90437.31;;;-145.06;39.61
59859;BME280;45734;53.648;9.566;2023-05-19T10:38:36;90512.94;;;-145.06;40.52
59859;BME280;45734;53.648;9.566;2023-05-19T10:43:43;90545.66;;;-145.06;40.38
59859;BME280;45734;53.648;9.566;2023-05-19T10:48:47;90557.91;;;-145.06;39.98
59859;BME280;45734;53.648;9.566;2023-05-19T10:53:47;90562.00;;;-145.06;41.63
59859;BME280;45734;53.648;9.566;2023-05-19T10:58:49;90823.63;;;-145.06;40.74
59859;BME280;45734;53.648;9.566;2023-05-19T11:03:51;90944.22;;;-145.06;40.32
59859;BME280;45734;53.648;9.566;2023-05-19T11:09:00;90731.63;;;-145.06;39.53
59859;BME280;45734;53.648;9.566;2023-05-19T11:14:02;90792.94;;;-145.06;41.76
59859;BME280;45734;53.648;9.566;2023-05-19T11:19:04;90731.63;;;-145.06;43.68
59859;BME280;45734;53.648;9.566;2023-05-19T11:24:07;90976.91;;;-145.06;41.31
59859;BME280;45734;53.648;9.566;2023-05-19T11:29:08;90927.84;;;-145.06;43.26
59859;BME280;45734;53.648;9.566;2023-05-19T11:34:08;90891.06;;;-145.06;44.54
59859;BME280;45734;53.648;9.566;2023-05-19T11:39:08;90815.44;;;-145.06;42.56
59859;BME280;45734;53.648;9.566;2023-05-19T11:44:10;90750.03;;;-145.06;41.45
59859;BME280;45734;53.648;9.566;2023-05-19T11:49:11;90956.47;;;-145.06;42.77
59859;BME280;45734;53.648;9.566;2023-05-19T11:54:11;91081.16;;;-145.06;42.73
59859;BME280;45734;53.648;9.566;2023-05-19T11:59:12;90795.00;;;-145.06;41.29
59859;BME280;45734;53.648;9.566;2023-05-19T12:04:12;90848.13;;;-145.06;42.33
59859;BME280;45734;53.648;9.566;2023-05-19T12:09:13;90727.53;;;-145.06;40.34
59859;BME280;45734;53.648;9.566;2023-05-19T12:14:14;90852.22;;;-145.06;39.48
59859;BME280;45734;53.648;9.566;2023-05-19T12:19:14;90866.53;;;-145.06;40.86
59859;BME280;45734;53.648;9.566;2023-05-19T12:24:14;90811.34;;;-145.06;39.95
59859;BME280;45734;53.648;9.566;2023-05-19T12:29:15;90748.00;;;-145.06;39.99
59859;BME280;45734;53.648;9.566;2023-05-19T12:34:15;91109.78;;;-145.06;39.55
59859;BME280;45734;53.648;9.566;2023-05-19T12:39:15;90850.19;;;-145.06;41.37
59859;BME280;45734;53.648;9.566;2023-05-19T12:44:16;90807.25;;;-145.06;40.76
59859;BME280;45734;53.648;9.566;2023-05-19T12:49:17;90739.81;;;-145.06;39.44
59859;BME280;45734;53.648;9.566;2023-05-19T12:54:19;90680.53;;;-145.06;39.00
59859;BME280;45734;53.648;9.566;2023-05-19T12:59:23;90856.31;;;-145.06;38.67
59859;BME280;45734;53.648;9.566;2023-05-19T13:04:27;91007.56;;;-145.06;38.77
59859;BME280;45734;53.648;9.566;2023-05-19T13:09:27;90799.09;;;-145.06;38.51
59859;BME280;45734;53.648;9.566;2023-05-19T13:14:28;90713.25;;;-145.06;39.10
59859;BME280;45734;53.648;9.566;2023-05-19T13:19:28;90850.19;;;-145.06;38.95
59859;BME280;45734;53.648;9.566;2023-05-19T13:24:28;90893.09;;;-145.06;38.73
59859;BME280;45734;53.648;9.566;2023-05-19T13:29:29;90745.94;;;-145.06;38.03
59859;BME280;45734;53.648;9.566;2023-05-19T13:34:29;90923.78;;;-145.06;37.57
59859;BME280;45734;53.648;9.566;2023-05-19T13:39:29;90874.72;;;-145.06;38.42
59859;BME280;45734;53.648;9.566;2023-05-19T13:44:29;90700.97;;;-145.06;37.24
59859;BME280;45734;53.648;9.566;2023-05-19T13:49:30;90688.72;;;-145.06;37.79
59859;BME280;45734;53.648;9.566;2023-05-19T13:54:30;90862.44;;;-145.06;36.48
59859;BME280;45734;53.648;9.566;2023-05-19T13:59:31;90770.47;;;-145.06;38.15
59859;BME280;45734;53.648;9.566;2023-05-19T14:04:31;90666.22;;;-145.06;35.84
59859;BME280;45734;53.648;9.566;2023-05-19T14:09:32;90664.19;;;-145.06;36.07
59859;BME280;45734;53.648;9.566;2023-05-19T14:14:32;90737.75;;;-145.06;36.00
59859;BME280;45734;53.648;9.566;2023-05-19T14:19:33;90788.88;;;-145.06;38.37
59859;BME280;45734;53.648;9.566;2023-05-19T14:24:33;90684.63;;;-145.06;35.52
59859;BME280;45734;53.648;9.566;2023-05-19T14:29:33;90705.06;;;-145.06;35.44
59859;BME280;45734;53.648;9.566;2023-05-19T14:34:34;90680.53;;;-145.06;35.62
59859;BME280;45734;53.648;9.566;2023-05-19T14:39:34;90619.22;;;-145.06;35.12
59859;BME280;45734;53.648;9.566;2023-05-19T14:44:35;90641.69;;;-145.06;36.40
59859;BME280;45734;53.648;9.566;2023-05-19T14:49:36;90666.22;;;-145.06;36.96
59859;BME280;45734;53.648;9.566;2023-05-19T14:54:37;90981.00;;;-145.06;37.40
59859;BME280;45734;53.648;9.566;2023-05-19T14:59:37;90786.81;;;-145.06;37.03
59859;BME280;45734;53.648;9.566;2023-05-19T15:04:37;90770.47;;;-145.06;36.72
59859;BME280;45734;53.648;9.566;2023-05-19T15:09:37;90756.16;;;-145.06;36.84
59859;BME280;45734;53.648;9.566;2023-05-19T15:14:38;90774.56;;;-145.06;37.25
59859;BME280;45734;53.648;9.566;2023-05-19T15:19:38;90772.50;;;-145.06;37.39
59859;BME280;45734;53.648;9.566;2023-05-19T15:24:40;90778.66;;;-145.06;37.13
59859;BME280;45734;53.648;9.566;2023-05-19T15:29:41;90807.25;;;-145.06;37.40
59859;BME280;45734;53.648;9.566;2023-05-19T15:34:41;90884.94;;;-145.06;38.69
59859;BME280;45734;53.648;9.566;2023-05-19T15:39:41;90876.75;;;-145.06;38.92
59859;BME280;45734;53.648;9.566;2023-05-19T15:44:42;90880.84;;;-145.06;37.94
59859;BME280;45734;53.648;9.566;2023-05-19T15:49:44;90934.00;;;-145.06;39.40
59859;BME280;45734;53.648;9.566;2023-05-19T15:54:45;90884.94;;;-145.06;37.95
59859;BME280;45734;53.648;9.566;2023-05-19T15:59:46;90938.06;;;-145.06;39.76
59859;BME280;45734;53.648;9.566;2023-05-19T16:04:46;90891.06;;;-145.06;37.62
59859;BME280;45734;53.648;9.566;2023-05-19T16:09:47;90958.50;;;-145.06;39.31
59859;BME280;45734;53.648;9.566;2023-05-19T16:14:49;90958.50;;;-145.06;39.16
59859;BME280;45734;53.648;9.566;2023-05-19T16:19:49;90929.91;;;-145.06;38.45
59859;BME280;45734;53.648;9.566;2023-05-19T16:24:50;90938.06;;;-145.06;38.79
59859;BME280;45734;53.648;9.566;2023-05-19T16:29:50;90985.09;;;-145.06;39.91
59859;BME280;45734;53.648;9.566;2023-05-19T16:34:50;91081.16;;;-145.06;40.42
59859;BME280;45734;53.648;9.566;2023-05-19T16:39:51;91252.88;;;-145.06;41.18
59859;BME280;45734;53.648;9.566;2023-05-19T16:44:51;91422.53;;;-145.06;41.47
59859;BME280;45734;53.648;9.566;2023-05-19T16:49:52;91555.41;;;-145.06;42.94
59859;BME280;45734;53.648;9.566;2023-05-19T16:54:52;91612.66;;;-145.06;44.12
59859;BME280;45734;53.648;9.566;2023-05-19T16:59:52;91600.38;;;-145.06;44.72
59859;BME280;45734;53.648;9.566;2023-05-19T17:04:52;91616.75;;;-145.06;43.85
59859;BME280;45734;53.648;9.566;2023-05-19T17:09:54;91649.44;;;-145.06;44.65
59859;BME280;45734;53.648;9.566;2023-05-19T17:14:54;91688.28;;;-145.06;45.25
59859;BME280;45734;53.648;9.566;2023-05-19T17:19:56;91702.59;;;-145.06;46.04
59859;BME280;45734;53.648;9.566;2023-05-19T17:24:56;91770.06;;;-145.06;47.90
59859;BME280;45734;53.648;9.566;2023-05-19T17:29:56;91821.19;;;-145.06;49.55
59859;BME280;45734;53.648;9.566;2023-05-19T17:34:57;91810.97;;;-145.06;49.04
59859;BME280;45734;53.648;9.566;2023-05-19T17:39:57;91882.50;;;-145.06;50.30
59859;BME280;45734;53.648;9.566;2023-05-19T17:44:57;91882.50;;;-145.06;52.56
59859;BME280;45734;53.648;9.566;2023-05-19T17:49:58;91880.47;;;-145.06;52.43
59859;BME280;45734;53.648;9.566;2023-05-19T17:54:58;91772.13;;;-145.06;53.11
59859;BME280;45734;53.648;9.566;2023-05-19T17:59:59;91792.56;;;-145.06;54.03
59859;BME280;45734;53.648;9.566;2023-05-19T18:04:59;91813.00;;;-145.06;55.92
59859;BME280;45734;53.648;9.566;2023-05-19T18:10:02;91851.84;;;-145.06;57.24
59859;BME280;45734;53.648;9.566;2023-05-19T18:15:04;91923.41;;;-145.06;60.11
59859;BME280;45734;53.648;9.566;2023-05-19T18:20:05;91868.22;;;-145.06;59.29
59859;BME280;45734;53.648;9.566;2023-05-19T18:25:06;92001.09;;;-145.06;60.94
59859;BME280;45734;53.648;9.566;2023-05-19T18:30:07;91954.06;;;-145.06;62.68
59859;BME280;45734;53.648;9.566;2023-05-19T18:35:08;91999.06;;;-145.06;64.38
59859;BME280;45734;53.648;9.566;2023-05-19T18:40:08;92046.06;;;-145.06;66.30
59859;BME280;45734;53.648;9.566;2023-05-19T18:45:15;92066.53;;;-145.06;66.69
59859;BME280;45734;53.648;9.566;2023-05-19T18:50:15;92082.88;;;-145.06;66.82
59859;BME280;45734;53.648;9.566;2023-05-19T18:55:16;92076.75;;;-145.06;65.15
59859;BME280;45734;53.648;9.566;2023-05-19T19:00:16;92058.34;;;-145.06;66.11
59859;BME280;45734;53.648;9.566;2023-05-19T19:05:17;92115.59;;;-145.06;65.91
59859;BME280;45734;53.648;9.566;2023-05-19T19:10:18;92066.53;;;-145.06;63.67
59859;BME280;45734;53.648;9.566;2023-05-19T19:15:18;92115.59;;;-145.06;64.73
59859;BME280;45734;53.648;9.566;2023-05-19T19:20:18;92117.63;;;-145.06;65.67
59859;BME280;45734;53.648;9.566;2023-05-19T19:25:19;92187.16;;;-145.06;66.99
59859;BME280;45734;53.648;9.566;2023-05-19T19:30:19;92181.03;;;-145.06;67.98
59859;BME280;45734;53.648;9.566;2023-05-19T19:35:19;92152.41;;;-145.06;65.40
59859;BME280;45734;53.648;9.566;2023-05-19T19:40:19;92152.41;;;-145.06;64.80
59859;BME280;45734;53.648;9.566;2023-05-19T19:45:20;92129.91;;;-145.06;65.71
59859;BME280;45734;53.648;9.566;2023-05-19T19:50:20;92191.25;;;-145.06;67.12
59859;BME280;45734;53.648;9.566;2023-05-19T19:55:21;92191.25;;;-145.06;69.15
59859;BME280;45734;53.648;9.566;2023-05-19T20:00:21;92191.25;;;-145.06;68.57
59859;BME280;45734;53.648;9.566;2023-05-19T20:05:21;92162.63;;;-145.06;68.23
59859;BME280;45734;53.648;9.566;2023-05-19T20:10:22;92199.44;;;-145.06;68.39
59859;BME280;45734;53.648;9.566;2023-05-19T20:15:22;92113.56;;;-145.06;66.57
59859;BME280;45734;53.648;9.566;2023-05-19T20:20:22;92152.41;;;-145.06;66.59
59859;BME280;45734;53.648;9.566;2023-05-19T20:25:22;92103.31;;;-145.06;65.73
59859;BME280;45734;53.648;9.566;2023-05-19T20:30:23;92148.31;;;-145.06;66.66
59859;BME280;45734;53.648;9.566;2023-05-19T20:35:23;92183.06;;;-145.06;67.19
59859;BME280;45734;53.648;9.566;2023-05-19T20:40:24;92193.28;;;-145.06;66.21
59859;BME280;45734;53.648;9.566;2023-05-19T20:45:24;92183.06;;;-145.06;65.89
59859;BME280;45734;53.648;9.566;2023-05-19T20:50:24;92136.03;;;-145.06;65.63
59859;BME280;45734;53.648;9.566;2023-05-19T20:55:25;92191.25;;;-145.06;66.17
59859;BME280;45734;53.648;9.566;2023-05-19T21:00:25;92209.66;;;-145.06;66.68
59859;BME280;45734;53.648;9.566;2023-05-19T21:05:25;92160.56;;;-145.06;65.92
59859;BME280;45734;53.648;9.566;2023-05-19T21:10:26;92174.88;;;-145.06;65.78
59859;BME280;45734;53.648;9.566;2023-05-19T21:15:26;92160.56;;;-145.06;66.09
59859;BME280;45734;53.648;9.566;2023-05-19T21:20:26;92207.59;;;-145.06;67.03
59859;BME280;45734;53.648;9.566;2023-05-19T21:25:28;92226.00;;;-145.06;67.65
59859;BME280;45734;53.648;9.566;2023-05-19T21:30:28;92191.25;;;-145.06;67.73
59859;BME280;45734;53.648;9.566;2023-05-19T21:35:28;92264.84;;;-145.06;67.39
59859;BME280;45734;53.648;9.566;2023-05-19T21:40:29;92244.41;;;-145.06;67.98
59859;BME280;45734;53.648;9.566;2023-05-19T21:45:29;92219.88;;;-145.06;68.39
59859;BME280;45734;53.648;9.566;2023-05-19T21:50:29;92275.06;;;-145.06;69.20
59859;BME280;45734;53.648;9.566;2023-05-19T21:55:30;92301.66;;;-145.06;70.41
59859;BME280;45734;53.648;9.566;2023-05-19T22:00:30;92307.78;;;-145.06;72.73
59859;BME280;45734;53.648;9.566;2023-05-19T22:05:30;92285.31;;;-145.06;74.49
59859;BME280;45734;53.648;9.566;2023-05-19T22:10:34;92334.38;;;-145.06;75.91
59859;BME280;45734;53.648;9.566;2023-05-19T22:15:37;92379.34;;;-145.06;77.12
59859;BME280;45734;53.648;9.566;2023-05-19T22:20:37;92348.69;;;-145.06;77.15
59859;BME280;45734;53.648;9.566;2023-05-19T22:25:37;92336.41;;;-145.06;77.64
59859;BME280;45734;53.648;9.566;2023-05-19T22:30:38;92336.41;;;-145.06;78.04
59859;BME280;45734;53.648;9.566;2023-05-19T22:35:38;92391.63;;;-145.06;79.04
59859;BME280;45734;53.648;9.566;2023-05-19T22:40:39;92418.22;;;-145.06;80.18
59859;BME280;45734;53.648;9.566;2023-05-19T22:45:39;92430.47;;;-145.06;81.14
59859;BME280;45734;53.648;9.566;2023-05-19T22:50:39;92414.13;;;-145.06;82.77
59859;BME280;45734;53.648;9.566;2023-05-19T22:55:40;92412.06;;;-145.06;83.17
59859;BME280;45734;53.648;9.566;2023-05-19T23:00:40;92448.88;;;-145.06;84.13
59859;BME280;45734;53.648;9.566;2023-05-19T23:05:41;92434.56;;;-145.06;83.83
59859;BME280;45734;53.648;9.566;2023-05-19T23:10:41;92420.25;;;-145.06;84.67
59859;BME280;45734;53.648;9.566;2023-05-19T23:15:42;92467.28;;;-145.06;85.30
59859;BME280;45734;53.648;9.566;2023-05-19T23:20:42;92471.38;;;-145.06;84.93
59859;BME280;45734;53.648;9.566;2023-05-19T23:25:42;92446.84;;;-145.06;85.47
59859;BME280;45734;53.648;9.566;2023-05-19T23:30:43;92463.19;;;-145.06;85.99
59859;BME280;45734;53.648;9.566;2023-05-19T23:35:45;92471.38;;;-145.06;86.57
59859;BME280;45734;53.648;9.566;2023-05-19T23:40:45;92452.97;;;-145.06;87.01
59859;BME280;45734;53.648;9.566;2023-05-19T23:45:45;92467.28;;;-145.06;88.23
59859;BME280;45734;53.648;9.566;2023-05-19T23:50:46;92438.66;;;-145.06;88.45
59859;BME280;45734;53.648;9.566;2023-05-19T23:55:46;92514.31;;;-145.06;89.65
